sensor_id;sensor_type;location;lat;lon;timestamp;P1;durP1;ratioP1;P2;durP2;ratioP2
21110;SDS011;10713;51.912;4.494;2023-01-28T00:02:06;13.40;;;7.60;;
21110;SDS011;10713;51.912;4.494;2023-01-28T00:04:32;15.63;;;7.60;;
21110;SDS011;10713;51.912;4.494;2023-01-28T00:06:57;18.70;;;7.75;;
21110;SDS011;10713;51.912;4.494;2023-01-28T00:09:23;13.20;;;7.45;;
21110;SDS011;10713;51.912;4.494;2023-01-28T00:11:48;15.00;;;7.28;;
21110;SDS011;10713;51.912;4.494;2023-01-28T00:14:13;14.18;;;7.57;;
21110;SDS011;10713;51.912;4.494;2023-01-28T00:16:39;14.50;;;7.32;;
21110;SDS011;10713;51.912;4.494;2023-01-28T00:19:04;14.02;;;7.43;;
21110;SDS011;10713;51.912;4.494;2023-01-28T00:21:30;13.57;;;6.32;;
21110;SDS011;10713;51.912;4.494;2023-01-28T00:23:55;14.32;;;6.93;;
21110;SDS011;10713;51.912;4.494;2023-01-28T00:26:22;14.60;;;7.22;;
21110;SDS011;10713;51.912;4.494;2023-01-28T00:28:49;15.63;;;7.40;;
21110;SDS011;10713;51.912;4.494;2023-01-28T00:31:15;16.45;;;7.90;;
21110;SDS011;10713;51.912;4.494;2023-01-28T00:33:43;12.73;;;6.78;;
21110;SDS011;10713;51.912;4.494;2023-01-28T00:36:10;13.75;;;7.43;;
21110;SDS011;10713;51.912;4.494;2023-01-28T00:38:36;14.30;;;7.70;;
21110;SDS011;10713;51.912;4.494;2023-01-28T00:41:08;16.10;;;8.30;;
21110;SDS011;10713;51.912;4.494;2023-01-28T00:43:37;15.68;;;8.00;;
21110;SDS011;10713;51.912;4.494;2023-01-28T00:46:04;15.43;;;7.88;;
21110;SDS011;10713;51.912;4.494;2023-01-28T00:48:31;16.52;;;7.60;;
21110;SDS011;10713;51.912;4.494;2023-01-28T00:50:57;16.08;;;8.45;;
21110;SDS011;10713;51.912;4.494;2023-01-28T00:53:22;17.60;;;8.23;;
21110;SDS011;10713;51.912;4.494;2023-01-28T00:55:48;16.30;;;7.82;;
21110;SDS011;10713;51.912;4.494;2023-01-28T00:58:13;14.90;;;7.80;;
21110;SDS011;10713;51.912;4.494;2023-01-28T01:00:38;17.30;;;8.20;;
21110;SDS011;10713;51.912;4.494;2023-01-28T01:03:04;15.27;;;7.65;;
21110;SDS011;10713;51.912;4.494;2023-01-28T01:05:29;15.30;;;7.57;;
21110;SDS011;10713;51.912;4.494;2023-01-28T01:07:55;15.82;;;8.00;;
21110;SDS011;10713;51.912;4.494;2023-01-28T01:10:21;15.40;;;7.75;;
21110;SDS011;10713;51.912;4.494;2023-01-28T01:12:47;18.83;;;7.95;;
21110;SDS011;10713;51.912;4.494;2023-01-28T01:15:14;15.13;;;7.90;;
21110;SDS011;10713;51.912;4.494;2023-01-28T01:17:41;17.95;;;8.20;;
21110;SDS011;10713;51.912;4.494;2023-01-28T01:20:13;15.70;;;7.97;;
21110;SDS011;10713;51.912;4.494;2023-01-28T01:22:40;17.98;;;8.82;;
21110;SDS011;10713;51.912;4.494;2023-01-28T01:25:06;17.33;;;8.20;;
21110;SDS011;10713;51.912;4.494;2023-01-28T01:27:32;15.85;;;8.02;;
21110;SDS011;10713;51.912;4.494;2023-01-28T01:29:58;15.50;;;7.78;;
21110;SDS011;10713;51.912;4.494;2023-01-28T01:32:33;19.15;;;8.50;;
21110;SDS011;10713;51.912;4.494;2023-01-28T01:35:02;16.70;;;8.60;;
21110;SDS011;10713;51.912;4.494;2023-01-28T01:37:33;17.10;;;8.68;;
21110;SDS011;10713;51.912;4.494;2023-01-28T01:39:59;16.13;;;8.05;;
21110;SDS011;10713;51.912;4.494;2023-01-28T01:42:26;16.63;;;8.02;;
21110;SDS011;10713;51.912;4.494;2023-01-28T01:47:31;23.27;;;9.75;;
21110;SDS011;10713;51.912;4.494;2023-01-28T01:50:08;16.80;;;8.68;;
21110;SDS011;10713;51.912;4.494;2023-01-28T01:52:57;17.83;;;9.18;;
21110;SDS011;10713;51.912;4.494;2023-01-28T01:55:30;19.00;;;9.23;;
21110;SDS011;10713;51.912;4.494;2023-01-28T01:58:00;18.77;;;8.90;;
21110;SDS011;10713;51.912;4.494;2023-01-28T02:00:30;16.67;;;8.48;;
21110;SDS011;10713;51.912;4.494;2023-01-28T02:02:56;18.20;;;8.57;;
21110;SDS011;10713;51.912;4.494;2023-01-28T02:05:22;22.63;;;10.07;;
21110;SDS011;10713;51.912;4.494;2023-01-28T02:07:49;18.15;;;9.68;;
21110;SDS011;10713;51.912;4.494;2023-01-28T02:10:19;17.63;;;8.82;;
21110;SDS011;10713;51.912;4.494;2023-01-28T02:12:50;19.90;;;9.80;;
21110;SDS011;10713;51.912;4.494;2023-01-28T02:15:20;19.83;;;9.98;;
21110;SDS011;10713;51.912;4.494;2023-01-28T02:17:49;18.88;;;9.68;;
21110;SDS011;10713;51.912;4.494;2023-01-28T02:20:18;18.00;;;8.05;;
21110;SDS011;10713;51.912;4.494;2023-01-28T02:30:32;21.58;;;9.18;;
21110;SDS011;10713;51.912;4.494;2023-01-28T02:33:07;20.38;;;9.20;;
21110;SDS011;10713;51.912;4.494;2023-01-28T02:35:42;19.25;;;9.40;;
21110;SDS011;10713;51.912;4.494;2023-01-28T02:38:17;20.25;;;10.00;;
21110;SDS011;10713;51.912;4.494;2023-01-28T02:40:49;18.90;;;9.35;;
21110;SDS011;10713;51.912;4.494;2023-01-28T02:45:56;20.02;;;9.35;;
21110;SDS011;10713;51.912;4.494;2023-01-28T02:48:42;23.70;;;10.40;;
21110;SDS011;10713;51.912;4.494;2023-01-28T02:54:08;20.65;;;9.73;;
21110;SDS011;10713;51.912;4.494;2023-01-28T02:56:40;19.50;;;9.48;;
21110;SDS011;10713;51.912;4.494;2023-01-28T02:59:13;20.90;;;9.30;;
21110;SDS011;10713;51.912;4.494;2023-01-28T03:04:28;19.85;;;8.98;;
21110;SDS011;10713;51.912;4.494;2023-01-28T03:06:59;20.02;;;9.27;;
21110;SDS011;10713;51.912;4.494;2023-01-28T03:09:29;20.65;;;9.75;;
21110;SDS011;10713;51.912;4.494;2023-01-28T03:12:04;20.30;;;9.57;;
21110;SDS011;10713;51.912;4.494;2023-01-28T03:14:54;20.70;;;10.25;;
21110;SDS011;10713;51.912;4.494;2023-01-28T03:17:46;17.05;;;9.05;;
21110;SDS011;10713;51.912;4.494;2023-01-28T03:20:40;19.38;;;9.70;;
21110;SDS011;10713;51.912;4.494;2023-01-28T03:24:10;18.48;;;9.07;;
21110;SDS011;10713;51.912;4.494;2023-01-28T03:27:05;17.95;;;8.27;;
21110;SDS011;10713;51.912;4.494;2023-01-28T03:29:57;20.48;;;9.18;;
21110;SDS011;10713;51.912;4.494;2023-01-28T03:32:45;18.70;;;8.52;;
21110;SDS011;10713;51.912;4.494;2023-01-28T03:35:32;16.13;;;8.40;;
21110;SDS011;10713;51.912;4.494;2023-01-28T03:38:18;17.15;;;9.15;;
21110;SDS011;10713;51.912;4.494;2023-01-28T03:43:16;15.88;;;8.05;;
21110;SDS011;10713;51.912;4.494;2023-01-28T03:45:41;20.33;;;8.23;;
21110;SDS011;10713;51.912;4.494;2023-01-28T03:48:06;15.73;;;8.20;;
21110;SDS011;10713;51.912;4.494;2023-01-28T03:50:32;16.48;;;8.18;;
21110;SDS011;10713;51.912;4.494;2023-01-28T03:52:57;16.33;;;8.15;;
21110;SDS011;10713;51.912;4.494;2023-01-28T03:55:36;15.35;;;7.90;;
21110;SDS011;10713;51.912;4.494;2023-01-28T03:58:02;15.80;;;8.25;;
21110;SDS011;10713;51.912;4.494;2023-01-28T04:00:29;16.15;;;7.53;;
21110;SDS011;10713;51.912;4.494;2023-01-28T04:02:56;15.10;;;7.80;;
21110;SDS011;10713;51.912;4.494;2023-01-28T04:05:22;14.20;;;6.90;;
21110;SDS011;10713;51.912;4.494;2023-01-28T04:07:47;15.27;;;7.45;;
21110;SDS011;10713;51.912;4.494;2023-01-28T04:10:15;18.55;;;8.55;;
21110;SDS011;10713;51.912;4.494;2023-01-28T04:12:40;17.17;;;8.38;;
21110;SDS011;10713;51.912;4.494;2023-01-28T04:15:06;17.25;;;8.25;;
21110;SDS011;10713;51.912;4.494;2023-01-28T04:17:39;15.18;;;7.93;;
21110;SDS011;10713;51.912;4.494;2023-01-28T04:20:08;14.20;;;7.30;;
21110;SDS011;10713;51.912;4.494;2023-01-28T04:22:34;13.50;;;7.30;;
21110;SDS011;10713;51.912;4.494;2023-01-28T04:24:59;11.75;;;6.07;;
21110;SDS011;10713;51.912;4.494;2023-01-28T04:27:25;11.25;;;5.90;;
21110;SDS011;10713;51.912;4.494;2023-01-28T04:29:50;10.95;;;6.28;;
21110;SDS011;10713;51.912;4.494;2023-01-28T04:32:15;11.40;;;6.15;;
21110;SDS011;10713;51.912;4.494;2023-01-28T04:34:41;11.88;;;6.00;;
21110;SDS011;10713;51.912;4.494;2023-01-28T04:37:06;11.05;;;6.25;;
21110;SDS011;10713;51.912;4.494;2023-01-28T04:39:31;11.02;;;6.00;;
21110;SDS011;10713;51.912;4.494;2023-01-28T04:41:57;11.32;;;5.68;;
21110;SDS011;10713;51.912;4.494;2023-01-28T04:44:22;12.00;;;6.00;;
21110;SDS011;10713;51.912;4.494;2023-01-28T04:46:47;11.45;;;6.10;;
21110;SDS011;10713;51.912;4.494;2023-01-28T04:49:13;10.80;;;5.55;;
21110;SDS011;10713;51.912;4.494;2023-01-28T04:51:38;13.15;;;5.97;;
21110;SDS011;10713;51.912;4.494;2023-01-28T04:54:03;12.32;;;6.63;;
21110;SDS011;10713;51.912;4.494;2023-01-28T04:56:28;10.25;;;5.80;;
21110;SDS011;10713;51.912;4.494;2023-01-28T04:58:54;11.25;;;5.72;;
21110;SDS011;10713;51.912;4.494;2023-01-28T05:01:19;10.35;;;5.70;;
21110;SDS011;10713;51.912;4.494;2023-01-28T05:03:45;12.20;;;6.15;;
21110;SDS011;10713;51.912;4.494;2023-01-28T05:06:10;13.20;;;5.93;;
21110;SDS011;10713;51.912;4.494;2023-01-28T05:08:35;11.70;;;6.45;;
21110;SDS011;10713;51.912;4.494;2023-01-28T05:11:01;10.77;;;6.10;;
21110;SDS011;10713;51.912;4.494;2023-01-28T05:13:26;15.63;;;6.55;;
21110;SDS011;10713;51.912;4.494;2023-01-28T05:15:52;14.15;;;6.75;;
21110;SDS011;10713;51.912;4.494;2023-01-28T05:18:17;11.95;;;6.55;;
21110;SDS011;10713;51.912;4.494;2023-01-28T05:20:43;12.45;;;6.72;;
21110;SDS011;10713;51.912;4.494;2023-01-28T05:23:08;12.18;;;6.43;;
21110;SDS011;10713;51.912;4.494;2023-01-28T05:25:33;11.18;;;6.63;;
21110;SDS011;10713;51.912;4.494;2023-01-28T05:27:59;11.35;;;6.05;;
21110;SDS011;10713;51.912;4.494;2023-01-28T05:30:24;12.43;;;6.55;;
21110;SDS011;10713;51.912;4.494;2023-01-28T05:32:53;11.32;;;5.63;;
21110;SDS011;10713;51.912;4.494;2023-01-28T05:35:19;12.30;;;6.13;;
21110;SDS011;10713;51.912;4.494;2023-01-28T05:37:45;10.10;;;6.10;;
21110;SDS011;10713;51.912;4.494;2023-01-28T05:40:10;12.93;;;6.32;;
21110;SDS011;10713;51.912;4.494;2023-01-28T05:42:36;11.35;;;6.35;;
21110;SDS011;10713;51.912;4.494;2023-01-28T05:45:01;10.48;;;5.78;;
21110;SDS011;10713;51.912;4.494;2023-01-28T05:47:27;13.05;;;7.10;;
21110;SDS011;10713;51.912;4.494;2023-01-28T05:49:52;13.10;;;6.82;;
21110;SDS011;10713;51.912;4.494;2023-01-28T05:52:17;13.77;;;6.45;;
21110;SDS011;10713;51.912;4.494;2023-01-28T05:54:43;12.85;;;6.18;;
21110;SDS011;10713;51.912;4.494;2023-01-28T05:57:08;14.38;;;6.55;;
21110;SDS011;10713;51.912;4.494;2023-01-28T05:59:33;9.15;;;5.38;;
21110;SDS011;10713;51.912;4.494;2023-01-28T06:01:59;12.02;;;6.30;;
21110;SDS011;10713;51.912;4.494;2023-01-28T06:04:24;12.32;;;6.45;;
21110;SDS011;10713;51.912;4.494;2023-01-28T06:06:49;9.10;;;5.70;;
21110;SDS011;10713;51.912;4.494;2023-01-28T06:09:15;10.30;;;6.13;;
21110;SDS011;10713;51.912;4.494;2023-01-28T06:11:40;10.57;;;6.47;;
21110;SDS011;10713;51.912;4.494;2023-01-28T06:14:05;10.00;;;5.90;;
21110;SDS011;10713;51.912;4.494;2023-01-28T06:16:31;10.00;;;5.60;;
21110;SDS011;10713;51.912;4.494;2023-01-28T06:18:56;9.05;;;5.57;;
21110;SDS011;10713;51.912;4.494;2023-01-28T06:21:22;12.95;;;5.47;;
21110;SDS011;10713;51.912;4.494;2023-01-28T06:23:47;8.65;;;5.30;;
21110;SDS011;10713;51.912;4.494;2023-01-28T06:26:12;9.18;;;5.10;;
21110;SDS011;10713;51.912;4.494;2023-01-28T06:28:38;8.48;;;5.28;;
21110;SDS011;10713;51.912;4.494;2023-01-28T06:31:03;10.18;;;5.28;;
21110;SDS011;10713;51.912;4.494;2023-01-28T06:33:29;10.93;;;5.70;;
21110;SDS011;10713;51.912;4.494;2023-01-28T06:35:54;10.07;;;5.47;;
21110;SDS011;10713;51.912;4.494;2023-01-28T06:38:20;10.98;;;6.18;;
21110;SDS011;10713;51.912;4.494;2023-01-28T06:40:54;8.68;;;5.22;;
21110;SDS011;10713;51.912;4.494;2023-01-28T06:43:20;8.93;;;5.00;;
21110;SDS011;10713;51.912;4.494;2023-01-28T06:45:51;9.00;;;5.57;;
21110;SDS011;10713;51.912;4.494;2023-01-28T06:48:18;9.15;;;5.25;;
21110;SDS011;10713;51.912;4.494;2023-01-28T06:50:45;11.45;;;5.80;;
21110;SDS011;10713;51.912;4.494;2023-01-28T06:53:11;11.65;;;5.47;;
21110;SDS011;10713;51.912;4.494;2023-01-28T06:55:36;10.90;;;5.82;;
21110;SDS011;10713;51.912;4.494;2023-01-28T06:58:02;11.48;;;5.47;;
21110;SDS011;10713;51.912;4.494;2023-01-28T07:00:27;9.02;;;5.43;;
21110;SDS011;10713;51.912;4.494;2023-01-28T07:02:54;9.60;;;5.47;;
21110;SDS011;10713;51.912;4.494;2023-01-28T07:05:20;9.25;;;5.30;;
21110;SDS011;10713;51.912;4.494;2023-01-28T07:07:46;9.98;;;5.63;;
21110;SDS011;10713;51.912;4.494;2023-01-28T07:10:11;12.85;;;5.72;;
21110;SDS011;10713;51.912;4.494;2023-01-28T07:12:37;9.20;;;5.15;;
21110;SDS011;10713;51.912;4.494;2023-01-28T07:15:03;11.60;;;6.28;;
21110;SDS011;10713;51.912;4.494;2023-01-28T07:17:28;9.95;;;5.85;;
21110;SDS011;10713;51.912;4.494;2023-01-28T07:19:54;9.23;;;5.45;;
21110;SDS011;10713;51.912;4.494;2023-01-28T07:22:19;10.80;;;6.25;;
21110;SDS011;10713;51.912;4.494;2023-01-28T07:24:44;10.30;;;5.75;;
21110;SDS011;10713;51.912;4.494;2023-01-28T07:27:10;11.63;;;6.20;;
21110;SDS011;10713;51.912;4.494;2023-01-28T07:29:35;9.35;;;5.75;;
21110;SDS011;10713;51.912;4.494;2023-01-28T07:32:01;12.55;;;6.47;;
21110;SDS011;10713;51.912;4.494;2023-01-28T07:34:26;11.43;;;6.25;;
21110;SDS011;10713;51.912;4.494;2023-01-28T07:36:52;12.05;;;6.28;;
21110;SDS011;10713;51.912;4.494;2023-01-28T07:39:17;10.80;;;5.93;;
21110;SDS011;10713;51.912;4.494;2023-01-28T07:41:42;10.68;;;5.85;;
21110;SDS011;10713;51.912;4.494;2023-01-28T07:44:08;12.82;;;6.15;;
21110;SDS011;10713;51.912;4.494;2023-01-28T07:46:33;13.45;;;6.78;;
21110;SDS011;10713;51.912;4.494;2023-01-28T07:48:59;11.15;;;6.13;;
21110;SDS011;10713;51.912;4.494;2023-01-28T07:51:24;13.32;;;6.75;;
21110;SDS011;10713;51.912;4.494;2023-01-28T07:53:49;11.27;;;6.28;;
21110;SDS011;10713;51.912;4.494;2023-01-28T07:56:15;11.50;;;6.32;;
21110;SDS011;10713;51.912;4.494;2023-01-28T07:58:40;11.57;;;6.40;;
21110;SDS011;10713;51.912;4.494;2023-01-28T08:01:06;13.07;;;6.82;;
21110;SDS011;10713;51.912;4.494;2023-01-28T08:03:31;13.25;;;6.72;;
21110;SDS011;10713;51.912;4.494;2023-01-28T08:05:57;12.70;;;6.60;;
21110;SDS011;10713;51.912;4.494;2023-01-28T08:08:22;12.23;;;6.38;;
21110;SDS011;10713;51.912;4.494;2023-01-28T08:10:49;11.38;;;6.70;;
21110;SDS011;10713;51.912;4.494;2023-01-28T08:13:15;13.32;;;7.22;;
21110;SDS011;10713;51.912;4.494;2023-01-28T08:15:42;11.82;;;6.57;;
21110;SDS011;10713;51.912;4.494;2023-01-28T08:18:09;12.70;;;6.88;;
21110;SDS011;10713;51.912;4.494;2023-01-28T08:20:37;10.40;;;6.90;;
21110;SDS011;10713;51.912;4.494;2023-01-28T08:25:39;12.45;;;6.80;;
21110;SDS011;10713;51.912;4.494;2023-01-28T08:28:05;12.45;;;6.85;;
21110;SDS011;10713;51.912;4.494;2023-01-28T08:30:31;15.23;;;7.03;;
21110;SDS011;10713;51.912;4.494;2023-01-28T08:32:57;12.68;;;6.78;;
21110;SDS011;10713;51.912;4.494;2023-01-28T08:35:24;11.55;;;6.65;;
21110;SDS011;10713;51.912;4.494;2023-01-28T08:37:50;13.18;;;7.55;;
21110;SDS011;10713;51.912;4.494;2023-01-28T08:40:15;13.25;;;6.82;;
21110;SDS011;10713;51.912;4.494;2023-01-28T08:42:47;13.20;;;7.30;;
21110;SDS011;10713;51.912;4.494;2023-01-28T08:45:13;18.42;;;6.95;;
21110;SDS011;10713;51.912;4.494;2023-01-28T08:47:48;12.18;;;6.90;;
21110;SDS011;10713;51.912;4.494;2023-01-28T08:50:32;14.35;;;6.88;;
21110;SDS011;10713;51.912;4.494;2023-01-28T08:53:02;10.10;;;6.43;;
21110;SDS011;10713;51.912;4.494;2023-01-28T08:55:29;10.73;;;5.93;;
21110;SDS011;10713;51.912;4.494;2023-01-28T08:57:55;13.02;;;6.93;;
21110;SDS011;10713;51.912;4.494;2023-01-28T09:00:21;14.70;;;7.20;;
21110;SDS011;10713;51.912;4.494;2023-01-28T09:02:50;16.45;;;7.47;;
21110;SDS011;10713;51.912;4.494;2023-01-28T09:05:17;14.93;;;6.72;;
21110;SDS011;10713;51.912;4.494;2023-01-28T09:07:42;14.35;;;7.10;;
21110;SDS011;10713;51.912;4.494;2023-01-28T09:10:08;12.70;;;7.20;;
21110;SDS011;10713;51.912;4.494;2023-01-28T09:12:34;12.98;;;6.97;;
21110;SDS011;10713;51.912;4.494;2023-01-28T09:15:00;13.90;;;6.75;;
21110;SDS011;10713;51.912;4.494;2023-01-28T09:17:25;10.20;;;5.90;;
21110;SDS011;10713;51.912;4.494;2023-01-28T09:19:51;13.43;;;6.35;;
21110;SDS011;10713;51.912;4.494;2023-01-28T09:22:16;11.23;;;5.45;;
21110;SDS011;10713;51.912;4.494;2023-01-28T09:24:42;13.00;;;6.60;;
21110;SDS011;10713;51.912;4.494;2023-01-28T09:27:07;10.48;;;5.53;;
21110;SDS011;10713;51.912;4.494;2023-01-28T09:29:33;10.30;;;6.25;;
21110;SDS011;10713;51.912;4.494;2023-01-28T09:31:59;10.85;;;6.40;;
21110;SDS011;10713;51.912;4.494;2023-01-28T09:34:24;9.35;;;5.85;;
21110;SDS011;10713;51.912;4.494;2023-01-28T09:36:50;9.65;;;5.65;;
21110;SDS011;10713;51.912;4.494;2023-01-28T09:39:15;9.43;;;5.50;;
21110;SDS011;10713;51.912;4.494;2023-01-28T09:41:53;11.70;;;5.85;;
21110;SDS011;10713;51.912;4.494;2023-01-28T09:44:47;10.82;;;6.47;;
21110;SDS011;10713;51.912;4.494;2023-01-28T09:47:36;10.52;;;6.47;;
21110;SDS011;10713;51.912;4.494;2023-01-28T09:50:07;9.20;;;5.53;;
21110;SDS011;10713;51.912;4.494;2023-01-28T09:52:38;10.85;;;6.45;;
21110;SDS011;10713;51.912;4.494;2023-01-28T09:55:24;9.52;;;6.03;;
21110;SDS011;10713;51.912;4.494;2023-01-28T09:57:56;13.35;;;6.35;;
21110;SDS011;10713;51.912;4.494;2023-01-28T10:00:23;10.13;;;5.88;;
21110;SDS011;10713;51.912;4.494;2023-01-28T10:03:21;9.45;;;6.10;;
21110;SDS011;10713;51.912;4.494;2023-01-28T10:11:26;8.23;;;6.13;;
21110;SDS011;10713;51.912;4.494;2023-01-28T10:18:08;8.13;;;5.35;;
21110;SDS011;10713;51.912;4.494;2023-01-28T10:20:05;8.82;;;5.80;;
21110;SDS011;10713;51.912;4.494;2023-01-28T10:22:43;9.98;;;5.78;;
21110;SDS011;10713;51.912;4.494;2023-01-28T10:25:16;10.07;;;6.00;;
21110;SDS011;10713;51.912;4.494;2023-01-28T10:27:43;7.90;;;5.80;;
21110;SDS011;10713;51.912;4.494;2023-01-28T10:30:15;8.07;;;5.38;;
21110;SDS011;10713;51.912;4.494;2023-01-28T10:33:09;7.97;;;5.75;;
21110;SDS011;10713;51.912;4.494;2023-01-28T10:35:38;11.55;;;6.18;;
21110;SDS011;10713;51.912;4.494;2023-01-28T10:38:05;9.30;;;5.85;;
21110;SDS011;10713;51.912;4.494;2023-01-28T10:40:34;9.27;;;6.10;;
21110;SDS011;10713;51.912;4.494;2023-01-28T10:43:00;9.82;;;5.85;;
21110;SDS011;10713;51.912;4.494;2023-01-28T10:45:27;10.20;;;6.78;;
21110;SDS011;10713;51.912;4.494;2023-01-28T10:48:06;9.57;;;6.35;;
21110;SDS011;10713;51.912;4.494;2023-01-28T10:50:37;10.07;;;6.60;;
21110;SDS011;10713;51.912;4.494;2023-01-28T10:53:13;9.75;;;6.18;;
21110;SDS011;10713;51.912;4.494;2023-01-28T10:58:29;11.00;;;6.72;;
21110;SDS011;10713;51.912;4.494;2023-01-28T11:00:58;11.63;;;6.20;;
21110;SDS011;10713;51.912;4.494;2023-01-28T11:03:25;16.30;;;6.57;;
21110;SDS011;10713;51.912;4.494;2023-01-28T11:05:52;10.75;;;6.20;;
21110;SDS011;10713;51.912;4.494;2023-01-28T11:08:19;11.73;;;6.00;;
21110;SDS011;10713;51.912;4.494;2023-01-28T11:10:46;11.07;;;6.57;;
21110;SDS011;10713;51.912;4.494;2023-01-28T11:13:22;9.45;;;6.43;;
21110;SDS011;10713;51.912;4.494;2023-01-28T11:15:52;10.60;;;5.90;;
21110;SDS011;10713;51.912;4.494;2023-01-28T11:18:28;12.95;;;6.55;;
21110;SDS011;10713;51.912;4.494;2023-01-28T11:20:57;11.65;;;6.50;;
21110;SDS011;10713;51.912;4.494;2023-01-28T11:23:28;14.18;;;6.57;;
21110;SDS011;10713;51.912;4.494;2023-01-28T11:26:02;13.57;;;6.75;;
21110;SDS011;10713;51.912;4.494;2023-01-28T11:28:30;10.68;;;6.30;;
21110;SDS011;10713;51.912;4.494;2023-01-28T11:30:56;14.57;;;6.72;;
21110;SDS011;10713;51.912;4.494;2023-01-28T11:38:56;13.60;;;6.25;;
21110;SDS011;10713;51.912;4.494;2023-01-28T11:41:40;12.93;;;5.80;;
21110;SDS011;10713;51.912;4.494;2023-01-28T11:44:24;13.27;;;5.78;;
21110;SDS011;10713;51.912;4.494;2023-01-28T12:09:34;15.45;;;6.55;;
21110;SDS011;10713;51.912;4.494;2023-01-28T12:25:38;17.17;;;6.68;;
21110;SDS011;10713;51.912;4.494;2023-01-28T12:34:27;11.45;;;5.72;;
21110;SDS011;10713;51.912;4.494;2023-01-28T12:37:15;15.63;;;6.00;;
21110;SDS011;10713;51.912;4.494;2023-01-28T12:40:13;10.70;;;5.90;;
21110;SDS011;10713;51.912;4.494;2023-01-28T12:42:54;12.63;;;4.97;;
21110;SDS011;10713;51.912;4.494;2023-01-28T12:47:53;9.35;;;4.72;;
21110;SDS011;10713;51.912;4.494;2023-01-28T12:50:28;12.52;;;4.95;;
21110;SDS011;10713;51.912;4.494;2023-01-28T12:53:02;7.55;;;4.20;;
21110;SDS011;10713;51.912;4.494;2023-01-28T12:55:44;11.73;;;5.00;;
21110;SDS011;10713;51.912;4.494;2023-01-28T12:58:14;8.18;;;4.57;;
21110;SDS011;10713;51.912;4.494;2023-01-28T13:00:45;9.82;;;4.85;;
21110;SDS011;10713;51.912;4.494;2023-01-28T13:03:24;9.90;;;5.40;;
21110;SDS011;10713;51.912;4.494;2023-01-28T13:06:54;9.10;;;4.05;;
21110;SDS011;10713;51.912;4.494;2023-01-28T13:08:57;8.05;;;4.07;;
21110;SDS011;10713;51.912;4.494;2023-01-28T13:11:29;8.85;;;4.47;;
21110;SDS011;10713;51.912;4.494;2023-01-28T13:13:58;9.60;;;4.20;;
21110;SDS011;10713;51.912;4.494;2023-01-28T13:16:25;9.18;;;4.40;;
21110;SDS011;10713;51.912;4.494;2023-01-28T13:18:50;11.40;;;4.40;;
21110;SDS011;10713;51.912;4.494;2023-01-28T13:23:47;9.20;;;3.97;;
21110;SDS011;10713;51.912;4.494;2023-01-28T13:28:43;7.28;;;3.92;;
21110;SDS011;10713;51.912;4.494;2023-01-28T13:31:11;11.60;;;4.60;;
21110;SDS011;10713;51.912;4.494;2023-01-28T13:33:42;8.93;;;4.43;;
21110;SDS011;10713;51.912;4.494;2023-01-28T13:38:57;8.85;;;4.25;;
21110;SDS011;10713;51.912;4.494;2023-01-28T13:41:48;8.05;;;4.13;;
21110;SDS011;10713;51.912;4.494;2023-01-28T13:46:49;9.85;;;4.30;;
21110;SDS011;10713;51.912;4.494;2023-01-28T13:49:15;8.48;;;4.35;;
21110;SDS011;10713;51.912;4.494;2023-01-28T13:54:34;11.73;;;4.15;;
21110;SDS011;10713;51.912;4.494;2023-01-28T14:02:20;8.32;;;4.15;;
21110;SDS011;10713;51.912;4.494;2023-01-28T14:16:26;8.20;;;3.90;;
21110;SDS011;10713;51.912;4.494;2023-01-28T14:18:59;7.32;;;3.90;;
21110;SDS011;10713;51.912;4.494;2023-01-28T14:21:26;7.15;;;4.13;;
21110;SDS011;10713;51.912;4.494;2023-01-28T14:23:53;7.22;;;4.00;;
21110;SDS011;10713;51.912;4.494;2023-01-28T14:26:23;6.25;;;3.55;;
21110;SDS011;10713;51.912;4.494;2023-01-28T14:31:35;10.50;;;3.55;;
21110;SDS011;10713;51.912;4.494;2023-01-28T14:36:48;7.07;;;3.33;;
21110;SDS011;10713;51.912;4.494;2023-01-28T14:41:44;7.70;;;3.55;;
21110;SDS011;10713;51.912;4.494;2023-01-28T14:44:19;6.70;;;3.42;;
21110;SDS011;10713;51.912;4.494;2023-01-28T14:46:55;8.52;;;3.50;;
21110;SDS011;10713;51.912;4.494;2023-01-28T14:49:30;6.70;;;3.58;;
21110;SDS011;10713;51.912;4.494;2023-01-28T14:52:19;7.80;;;3.63;;
21110;SDS011;10713;51.912;4.494;2023-01-28T14:57:33;7.97;;;3.47;;
21110;SDS011;10713;51.912;4.494;2023-01-28T15:00:16;7.10;;;3.92;;
21110;SDS011;10713;51.912;4.494;2023-01-28T15:02:46;14.85;;;3.70;;
21110;SDS011;10713;51.912;4.494;2023-01-28T15:05:22;12.45;;;4.38;;
21110;SDS011;10713;51.912;4.494;2023-01-28T15:07:49;6.97;;;3.88;;
21110;SDS011;10713;51.912;4.494;2023-01-28T15:12:43;8.50;;;3.55;;
21110;SDS011;10713;51.912;4.494;2023-01-28T15:17:59;9.63;;;4.20;;
21110;SDS011;10713;51.912;4.494;2023-01-28T15:20:31;8.48;;;4.38;;
21110;SDS011;10713;51.912;4.494;2023-01-28T15:22:57;9.05;;;4.47;;
21110;SDS011;10713;51.912;4.494;2023-01-28T15:25:25;7.53;;;3.75;;
21110;SDS011;10713;51.912;4.494;2023-01-28T15:27:53;10.45;;;4.55;;
21110;SDS011;10713;51.912;4.494;2023-01-28T15:30:26;14.02;;;4.80;;
21110;SDS011;10713;51.912;4.494;2023-01-28T15:35:25;9.27;;;4.40;;
21110;SDS011;10713;51.912;4.494;2023-01-28T15:37:51;8.20;;;4.55;;
21110;SDS011;10713;51.912;4.494;2023-01-28T15:40:17;7.63;;;4.35;;
21110;SDS011;10713;51.912;4.494;2023-01-28T15:42:45;7.97;;;4.82;;
21110;SDS011;10713;51.912;4.494;2023-01-28T15:45:17;15.73;;;5.03;;
21110;SDS011;10713;51.912;4.494;2023-01-28T15:47:45;11.93;;;4.63;;
21110;SDS011;10713;51.912;4.494;2023-01-28T15:50:31;7.40;;;4.28;;
21110;SDS011;10713;51.912;4.494;2023-01-28T15:52:56;9.35;;;4.53;;
21110;SDS011;10713;51.912;4.494;2023-01-28T16:00:35;7.85;;;4.32;;
21110;SDS011;10713;51.912;4.494;2023-01-28T16:03:05;10.05;;;4.47;;
21110;SDS011;10713;51.912;4.494;2023-01-28T16:05:33;8.65;;;4.80;;
21110;SDS011;10713;51.912;4.494;2023-01-28T16:08:13;9.52;;;4.68;;
21110;SDS011;10713;51.912;4.494;2023-01-28T16:10:54;11.20;;;4.63;;
21110;SDS011;10713;51.912;4.494;2023-01-28T16:13:21;17.02;;;4.97;;
21110;SDS011;10713;51.912;4.494;2023-01-28T16:15:50;9.15;;;4.95;;
21110;SDS011;10713;51.912;4.494;2023-01-28T16:21:05;11.52;;;5.55;;
21110;SDS011;10713;51.912;4.494;2023-01-28T16:23:32;10.38;;;5.30;;
21110;SDS011;10713;51.912;4.494;2023-01-28T16:26:01;12.18;;;6.28;;
21110;SDS011;10713;51.912;4.494;2023-01-28T16:28:30;10.88;;;6.28;;
21110;SDS011;10713;51.912;4.494;2023-01-28T16:30:56;12.05;;;6.88;;
21110;SDS011;10713;51.912;4.494;2023-01-28T16:33:23;14.23;;;6.75;;
21110;SDS011;10713;51.912;4.494;2023-01-28T16:35:49;15.95;;;7.75;;
21110;SDS011;10713;51.912;4.494;2023-01-28T16:38:15;14.85;;;7.00;;
21110;SDS011;10713;51.912;4.494;2023-01-28T16:40:41;11.35;;;6.63;;
21110;SDS011;10713;51.912;4.494;2023-01-28T16:43:11;11.85;;;6.68;;
21110;SDS011;10713;51.912;4.494;2023-01-28T16:45:40;15.27;;;6.93;;
21110;SDS011;10713;51.912;4.494;2023-01-28T16:48:06;14.52;;;7.95;;
21110;SDS011;10713;51.912;4.494;2023-01-28T16:50:32;15.27;;;7.65;;
21110;SDS011;10713;51.912;4.494;2023-01-28T16:52:58;13.27;;;7.38;;
21110;SDS011;10713;51.912;4.494;2023-01-28T16:55:24;15.00;;;6.93;;
21110;SDS011;10713;51.912;4.494;2023-01-28T16:57:51;19.90;;;8.57;;
21110;SDS011;10713;51.912;4.494;2023-01-28T17:00:20;12.60;;;7.45;;
21110;SDS011;10713;51.912;4.494;2023-01-28T17:02:50;14.88;;;7.00;;
21110;SDS011;10713;51.912;4.494;2023-01-28T17:05:17;12.18;;;7.30;;
21110;SDS011;10713;51.912;4.494;2023-01-28T17:07:45;16.17;;;8.35;;
21110;SDS011;10713;51.912;4.494;2023-01-28T17:10:12;18.83;;;8.98;;
21110;SDS011;10713;51.912;4.494;2023-01-28T17:12:38;17.35;;;8.48;;
21110;SDS011;10713;51.912;4.494;2023-01-28T17:15:04;17.40;;;8.80;;